createdAt,value
2023-02-25T00:00:22.248Z,3.4
2023-02-25T00:01:30.587Z,3.4
2023-02-25T00:02:39.024Z,3.4
2023-02-25T00:03:47.563Z,3.5
2023-02-25T00:04:55.860Z,3.5
2023-02-25T00:06:04.215Z,3.5
2023-02-25T00:07:12.721Z,3.4
2023-02-25T00:08:21.088Z,3.4
2023-02-25T00:09:29.416Z,3.4
2023-02-25T00:10:37.975Z,3.3
2023-02-25T00:11:46.327Z,3.3
2023-02-25T00:12:55.417Z,3.3
2023-02-25T00:14:03.224Z,3.2
2023-02-25T00:15:11.567Z,3.2
2023-02-25T00:16:20.164Z,3.2
2023-02-25T00:17:28.443Z,2.7
2023-02-25T00:18:36.812Z,2.7
2023-02-25T00:19:45.119Z,2.7
2023-02-25T00:20:53.686Z,2.2
2023-02-25T00:22:02.054Z,2.2
2023-02-25T00:23:10.384Z,2.2
2023-02-25T00:24:18.943Z,1.9
2023-02-25T00:25:27.274Z,1.9
2023-02-25T00:26:35.621Z,1.9
2023-02-25T00:27:44.180Z,1.9
2023-02-25T00:28:52.525Z,1.9
2023-02-25T00:30:00.887Z,1.9
2023-02-25T00:31:09.491Z,1.6
2023-02-25T00:32:17.970Z,1.6
2023-02-25T00:33:26.109Z,1.6
2023-02-25T00:34:34.674Z,1.2
2023-02-25T00:35:43.017Z,1.2
2023-02-25T00:36:51.363Z,1.2
2023-02-25T00:38:10.207Z,1.7
2023-02-25T00:39:08.262Z,1.7
2023-02-25T00:40:16.600Z,1.7
2023-02-25T00:41:25.164Z,1.4
2023-02-25T00:42:33.527Z,1.4
2023-02-25T00:43:41.885Z,1.4
2023-02-25T00:44:50.447Z,1.3
2023-02-25T00:45:58.854Z,1.3
2023-02-25T00:47:07.145Z,1.3
2023-02-25T00:48:15.697Z,1.7
2023-02-25T00:49:31.966Z,1.7
2023-02-25T00:50:32.398Z,1.7
2023-02-25T00:51:40.956Z,1.2
2023-02-25T00:52:49.290Z,1.2
2023-02-25T00:53:57.656Z,1.2
2023-02-25T00:55:06.202Z,1.3
2023-02-25T00:56:14.532Z,1.3
2023-02-25T00:57:22.875Z,1.3
2023-02-25T00:58:31.420Z,1.3
2023-02-25T00:59:39.785Z,1.3
2023-02-25T01:00:51.952Z,1.3
2023-02-25T01:01:56.824Z,1.3
2023-02-25T01:03:05.122Z,1.3
2023-02-25T01:04:13.399Z,1.3
2023-02-25T01:05:21.968Z,1.2
2023-02-25T01:06:30.301Z,1.2
2023-02-25T01:07:38.645Z,1.2
2023-02-25T01:08:47.196Z,1
2023-02-25T01:09:55.576Z,1
2023-02-25T01:11:03.891Z,1
2023-02-25T01:12:12.442Z,1.3
2023-02-25T01:13:20.781Z,1.3
2023-02-25T01:14:29.133Z,1.3
2023-02-25T01:15:37.809Z,1
2023-02-25T01:16:46.036Z,1
2023-02-25T01:17:54.375Z,1
2023-02-25T01:19:02.913Z,1.2
2023-02-25T01:20:11.285Z,1.2
2023-02-25T01:21:19.613Z,1.2
2023-02-25T01:22:28.171Z,1.4
2023-02-25T01:23:36.511Z,1.4
2023-02-25T01:24:44.862Z,1.4
2023-02-25T01:25:53.442Z,1.3
2023-02-25T01:27:01.763Z,1.3
2023-02-25T01:28:10.109Z,1.3
2023-02-25T01:29:18.672Z,1.4
2023-02-25T01:30:27.049Z,1.4
2023-02-25T01:31:35.513Z,1.4
2023-02-25T01:32:44.064Z,1.1
2023-02-25T01:33:52.291Z,1.1
2023-02-25T01:35:00.670Z,1.1
2023-02-25T01:36:09.193Z,0.9
2023-02-25T01:37:17.559Z,0.9
2023-02-25T01:38:25.900Z,0.9
2023-02-25T01:39:34.473Z,1
2023-02-25T01:40:42.820Z,1
2023-02-25T01:41:51.309Z,1
2023-02-25T01:42:59.740Z,1.1
2023-02-25T01:44:08.088Z,1.1
2023-02-25T01:45:16.450Z,1.1
2023-02-25T01:46:25.354Z,1.1
2023-02-25T01:47:33.346Z,1.1
2023-02-25T01:48:41.695Z,1.1
2023-02-25T01:49:50.268Z,1.2
2023-02-25T01:50:58.620Z,1.2
2023-02-25T01:52:06.949Z,1.2
2023-02-25T01:53:15.517Z,1.3
2023-02-25T01:54:23.859Z,1.3
2023-02-25T01:55:32.217Z,1.3
2023-02-25T01:56:40.776Z,1.1
2023-02-25T01:57:49.154Z,1.1
2023-02-25T01:58:57.482Z,1.1
2023-02-25T02:00:06.044Z,1.1
2023-02-25T02:01:14.487Z,1.1
2023-02-25T02:02:22.810Z,1.1
2023-02-25T02:03:31.267Z,1.1
2023-02-25T02:04:39.645Z,1.1
2023-02-25T02:05:47.975Z,1.1
2023-02-25T02:06:56.543Z,1.1
2023-02-25T02:08:04.894Z,1.1
2023-02-25T02:09:13.242Z,1.1
2023-02-25T02:10:21.789Z,1.1
2023-02-25T02:11:30.141Z,1.1
2023-02-25T02:12:38.495Z,1.1
2023-02-25T02:13:47.026Z,1.3
2023-02-25T02:14:55.349Z,1.3
2023-02-25T02:16:03.726Z,1.3
2023-02-25T02:17:12.238Z,1.3
2023-02-25T02:18:20.585Z,1.3
2023-02-25T02:19:28.927Z,1.3
2023-02-25T02:20:37.489Z,1.1
2023-02-25T02:21:45.835Z,1.1
2023-02-25T02:22:54.194Z,1.1
2023-02-25T02:24:02.789Z,1.4
2023-02-25T02:25:11.145Z,1.4
2023-02-25T02:26:19.476Z,1.4
2023-02-25T02:27:28.030Z,1.4
2023-02-25T02:28:36.377Z,1.4
2023-02-25T02:29:44.769Z,1.4
2023-02-25T02:30:53.368Z,0.9
2023-02-25T02:32:01.782Z,0.9
2023-02-25T02:33:09.967Z,0.9
2023-02-25T02:34:18.523Z,1
2023-02-25T02:35:26.877Z,1
2023-02-25T02:36:35.228Z,1
2023-02-25T02:37:43.781Z,1
2023-02-25T02:38:52.134Z,1
2023-02-25T02:40:00.499Z,1
2023-02-25T02:41:09.047Z,1
2023-02-25T02:42:17.402Z,1
2023-02-25T02:43:25.746Z,1
2023-02-25T02:44:34.305Z,1.3
2023-02-25T02:45:42.717Z,1.3
2023-02-25T02:46:50.998Z,1.3
2023-02-25T02:47:59.552Z,1.2
2023-02-25T02:49:07.904Z,1.2
2023-02-25T02:50:16.262Z,1.2
2023-02-25T02:51:24.804Z,1.1
2023-02-25T02:52:33.142Z,1.1
2023-02-25T02:53:41.482Z,1.1
2023-02-25T02:54:50.037Z,1.1
2023-02-25T02:55:58.391Z,1.1
2023-02-25T02:57:06.744Z,1.1
2023-02-25T02:58:15.289Z,1
2023-02-25T02:59:23.706Z,1
2023-02-25T03:00:31.994Z,1
2023-02-25T03:01:40.561Z,1.1
2023-02-25T03:02:48.903Z,1.1
2023-02-25T03:03:57.288Z,1.1
2023-02-25T03:05:05.798Z,1.1
2023-02-25T03:06:14.152Z,1.1
2023-02-25T03:07:22.480Z,1.1
2023-02-25T03:08:31.036Z,0.9
2023-02-25T03:09:39.368Z,0.9
2023-02-25T03:10:47.727Z,0.9
2023-02-25T03:11:56.275Z,0.9
2023-02-25T03:13:04.623Z,0.9
2023-02-25T03:14:13.006Z,0.9
2023-02-25T03:15:21.528Z,1.1
2023-02-25T03:16:29.914Z,1.1
2023-02-25T03:17:38.247Z,1.1
2023-02-25T03:18:46.771Z,1.1
2023-02-25T03:19:55.136Z,1.1
2023-02-25T03:21:03.471Z,1.1
2023-02-25T03:22:12.020Z,1
2023-02-25T03:23:20.364Z,1
2023-02-25T03:24:28.729Z,1
2023-02-25T03:25:37.297Z,0.9
2023-02-25T03:26:45.632Z,0.9
2023-02-25T03:27:53.971Z,0.9
2023-02-25T03:29:02.529Z,0.9
2023-02-25T03:30:10.880Z,0.9
2023-02-25T03:31:19.223Z,0.9
2023-02-25T03:32:27.907Z,1
2023-02-25T03:33:36.120Z,1
2023-02-25T03:34:44.444Z,1
2023-02-25T03:35:53.005Z,1.5
2023-02-25T03:37:01.349Z,1.5
2023-02-25T03:38:09.682Z,1.5
2023-02-25T03:39:18.220Z,0.7
2023-02-25T03:40:26.568Z,0.7
2023-02-25T03:41:34.920Z,0.7
2023-02-25T03:42:43.465Z,0.6
2023-02-25T03:43:51.820Z,0.6
2023-02-25T03:45:00.183Z,0.6
2023-02-25T03:46:08.786Z,0.8
2023-02-25T03:47:17.062Z,0.8
2023-02-25T03:48:25.413Z,0.8
2023-02-25T03:49:33.985Z,0.7
2023-02-25T03:50:42.320Z,0.7
2023-02-25T03:51:50.660Z,0.7
2023-02-25T03:52:59.208Z,0.7
2023-02-25T03:54:07.539Z,0.7
2023-02-25T03:55:15.892Z,0.7
2023-02-25T03:56:24.711Z,0.7
2023-02-25T03:57:32.789Z,0.7
2023-02-25T03:58:41.151Z,0.7
2023-02-25T03:59:49.702Z,0.8
2023-02-25T04:00:58.615Z,0.8
2023-02-25T04:02:07.015Z,0.8
2023-02-25T04:03:15.515Z,0.6
2023-02-25T04:04:23.880Z,0.6
2023-02-25T04:05:32.265Z,0.6
2023-02-25T04:06:40.782Z,0.7
2023-02-25T04:07:49.125Z,0.7
2023-02-25T04:08:57.482Z,0.7
2023-02-25T04:10:06.034Z,0.6
2023-02-25T04:11:14.377Z,0.6
2023-02-25T04:12:22.721Z,0.6
2023-02-25T04:13:31.274Z,0.7
2023-02-25T04:14:39.611Z,0.7
2023-02-25T04:15:48.017Z,0.7
2023-02-25T04:16:56.529Z,0.8
2023-02-25T04:18:04.875Z,0.8
2023-02-25T04:19:13.227Z,0.8
2023-02-25T04:20:21.813Z,0.9
2023-02-25T04:21:30.167Z,0.9
2023-02-25T04:22:38.491Z,0.9
2023-02-25T04:23:47.040Z,0.7
2023-02-25T04:24:55.399Z,0.7
2023-02-25T04:26:03.752Z,0.7
2023-02-25T04:27:12.282Z,0.8
2023-02-25T04:28:20.605Z,0.8
2023-02-25T04:29:28.946Z,0.8
2023-02-25T04:30:37.546Z,0.5
2023-02-25T04:31:46.053Z,0.5
2023-02-25T04:32:54.294Z,0.5
2023-02-25T04:34:02.732Z,0.8
2023-02-25T04:35:11.086Z,0.8
2023-02-25T04:36:19.504Z,0.8
2023-02-25T04:37:28.018Z,0.6
2023-02-25T04:38:36.332Z,0.6
2023-02-25T04:39:44.680Z,0.6
2023-02-25T04:40:53.237Z,0.8
2023-02-25T04:42:01.582Z,0.8
2023-02-25T04:43:09.966Z,0.8
2023-02-25T04:44:18.486Z,0.8
2023-02-25T04:45:27.302Z,0.8
2023-02-25T04:46:35.264Z,0.8
2023-02-25T04:47:43.745Z,0.7
2023-02-25T04:48:52.086Z,0.7
2023-02-25T04:50:00.437Z,0.7
2023-02-25T04:51:08.985Z,0.6
2023-02-25T04:52:17.323Z,0.6
2023-02-25T04:53:25.685Z,0.6
2023-02-25T04:54:34.228Z,0.7
2023-02-25T04:55:42.574Z,0.7
2023-02-25T04:56:50.911Z,0.7
2023-02-25T04:57:59.461Z,0.7
2023-02-25T04:59:07.806Z,0.7
2023-02-25T05:00:16.151Z,0.7
2023-02-25T05:01:24.767Z,0.8
2023-02-25T05:02:33.036Z,0.8
2023-02-25T05:03:41.388Z,0.8
2023-02-25T05:04:49.959Z,0.7
2023-02-25T05:05:58.309Z,0.7
2023-02-25T05:07:06.661Z,0.7
2023-02-25T05:08:15.186Z,0.8
2023-02-25T05:09:23.546Z,0.8
2023-02-25T05:10:31.873Z,0.8
2023-02-25T05:11:40.411Z,1.2
2023-02-25T05:12:48.740Z,1.2
2023-02-25T05:13:57.103Z,1.2
2023-02-25T05:15:05.635Z,0.7
2023-02-25T05:16:14.042Z,0.7
2023-02-25T05:17:22.322Z,0.7
2023-02-25T05:18:30.871Z,0.9
2023-02-25T05:19:39.213Z,0.9
2023-02-25T05:20:47.562Z,0.9
2023-02-25T05:21:56.114Z,1
2023-02-25T05:23:04.453Z,1
2023-02-25T05:24:12.812Z,1
2023-02-25T05:25:21.370Z,1.1
2023-02-25T05:26:29.686Z,1.1
2023-02-25T05:27:38.045Z,1.1
2023-02-25T05:28:46.577Z,0.8
2023-02-25T05:29:55.001Z,0.8
2023-02-25T05:31:03.363Z,0.8
2023-02-25T05:32:11.970Z,1.1
2023-02-25T05:33:20.205Z,1.1
2023-02-25T05:34:28.558Z,1.1
2023-02-25T05:35:37.101Z,0.9
2023-02-25T05:36:45.428Z,0.9
2023-02-25T05:37:53.773Z,0.9
2023-02-25T05:39:02.312Z,1.1
2023-02-25T05:40:10.652Z,1.1
2023-02-25T05:41:19.049Z,1.1
2023-02-25T05:42:27.548Z,0.8
2023-02-25T05:43:35.895Z,0.8
2023-02-25T05:44:44.236Z,0.8
2023-02-25T05:45:52.806Z,0.9
2023-02-25T05:47:01.216Z,0.9
2023-02-25T05:48:09.494Z,0.9
2023-02-25T05:49:18.052Z,0.9
2023-02-25T05:50:26.390Z,0.9
2023-02-25T05:51:34.742Z,0.9
2023-02-25T05:52:43.298Z,1.3
2023-02-25T05:53:51.637Z,1.3
2023-02-25T05:54:59.970Z,1.3
2023-02-25T05:56:08.530Z,1.2
2023-02-25T05:57:16.872Z,1.2
2023-02-25T05:58:25.195Z,1.2
2023-02-25T05:59:33.755Z,1.1
2023-02-25T06:00:42.088Z,1.1
2023-02-25T06:01:50.531Z,1.1
2023-02-25T06:02:59.030Z,1.1
2023-02-25T06:04:07.344Z,1.1
2023-02-25T06:05:15.675Z,1.1
2023-02-25T06:06:24.686Z,1.2
2023-02-25T06:07:32.572Z,1.2
2023-02-25T06:08:40.928Z,1.2
2023-02-25T06:09:49.456Z,1
2023-02-25T06:10:57.816Z,1
2023-02-25T06:12:06.179Z,1
2023-02-25T06:13:14.755Z,1
2023-02-25T06:14:23.107Z,1
2023-02-25T06:15:31.420Z,1
2023-02-25T06:16:40.104Z,1.1
2023-02-25T06:17:48.314Z,1.1
2023-02-25T06:18:56.647Z,1.1
2023-02-25T06:20:05.212Z,1.4
2023-02-25T06:21:13.547Z,1.4
2023-02-25T06:22:21.886Z,1.4
2023-02-25T06:23:30.431Z,1
2023-02-25T06:24:38.773Z,1
2023-02-25T06:25:47.114Z,1
2023-02-25T06:26:55.670Z,1
2023-02-25T06:28:04.009Z,1
2023-02-25T06:29:12.369Z,1
2023-02-25T06:30:20.889Z,1
2023-02-25T06:31:29.310Z,1
2023-02-25T06:32:37.859Z,1
2023-02-25T06:33:46.237Z,1.2
2023-02-25T06:34:54.600Z,1.2
2023-02-25T06:36:03.022Z,1.2
2023-02-25T06:37:11.600Z,1
2023-02-25T06:38:19.974Z,1
2023-02-25T06:39:28.341Z,1
2023-02-25T06:40:36.909Z,1.2
2023-02-25T06:41:45.268Z,1.2
2023-02-25T06:42:53.639Z,1.2
2023-02-25T06:44:02.204Z,1.1
2023-02-25T06:45:10.577Z,1.1
2023-02-25T06:46:18.991Z,1.1
2023-02-25T06:47:27.481Z,1.5
2023-02-25T06:48:35.845Z,1.5
2023-02-25T06:49:44.182Z,1.5
2023-02-25T06:50:52.751Z,1.3
2023-02-25T06:52:01.101Z,1.3
2023-02-25T06:53:09.451Z,1.3
2023-02-25T06:54:18.006Z,0.9
2023-02-25T06:55:26.331Z,0.9
2023-02-25T06:56:34.690Z,0.9
2023-02-25T06:57:43.281Z,0.9
2023-02-25T06:58:51.644Z,0.9
2023-02-25T06:59:59.982Z,0.9
2023-02-25T07:01:08.637Z,0.9
2023-02-25T07:02:16.936Z,0.9
2023-02-25T07:03:25.287Z,0.9
2023-02-25T07:04:33.875Z,0.8
2023-02-25T07:05:42.196Z,0.8
2023-02-25T07:06:50.574Z,0.8
2023-02-25T07:07:59.145Z,1.1
2023-02-25T07:09:07.479Z,1.1
2023-02-25T07:10:15.842Z,1.1
2023-02-25T07:11:24.401Z,0.4
2023-02-25T07:12:32.768Z,0.4
2023-02-25T07:13:41.122Z,0.4
2023-02-25T07:14:49.698Z,0.7
2023-02-25T07:15:58.120Z,0.7
2023-02-25T07:17:06.476Z,0.7
2023-02-25T07:18:15.018Z,0.7
2023-02-25T07:19:24.145Z,0.7
2023-02-25T07:20:32.503Z,0.7
2023-02-25T07:21:41.059Z,1.2
2023-02-25T07:22:49.420Z,1.2
2023-02-25T07:23:57.766Z,1.2
2023-02-25T07:25:06.404Z,0.6
2023-02-25T07:26:14.699Z,0.6
2023-02-25T07:27:23.069Z,0.6
2023-02-25T07:28:31.649Z,0.8
2023-02-25T07:29:40.023Z,0.8
2023-02-25T07:30:48.546Z,0.8
2023-02-25T07:31:57.207Z,0.8
2023-02-25T07:33:06.048Z,0.8
2023-02-25T07:34:13.737Z,0.8
2023-02-25T07:35:22.337Z,0.9
2023-02-25T07:36:30.699Z,0.9
2023-02-25T07:37:39.217Z,0.9
2023-02-25T07:38:47.780Z,0.7
2023-02-25T07:39:56.134Z,0.7
2023-02-25T07:41:04.490Z,0.7
2023-02-25T07:42:13.035Z,0.7
2023-02-25T07:43:21.385Z,0.7
2023-02-25T07:44:29.732Z,0.7
2023-02-25T07:45:38.284Z,0.7
2023-02-25T07:46:46.610Z,0.7
2023-02-25T07:47:54.969Z,0.7
2023-02-25T07:49:03.554Z,0.8
2023-02-25T07:50:12.937Z,0.8
2023-02-25T07:51:20.207Z,0.8
2023-02-25T07:52:28.770Z,0.8
2023-02-25T07:53:37.578Z,0.8
2023-02-25T07:54:45.937Z,0.8
2023-02-25T07:55:54.948Z,1
2023-02-25T07:57:04.769Z,1
2023-02-25T07:58:13.971Z,1
2023-02-25T07:59:22.534Z,0.8
2023-02-25T08:00:30.885Z,0.8
2023-02-25T08:01:39.258Z,0.8
2023-02-25T08:02:47.800Z,0.9
2023-02-25T08:03:56.112Z,0.9
2023-02-25T08:05:04.483Z,0.9
2023-02-25T08:06:13.009Z,0.9
2023-02-25T08:07:21.356Z,0.9
2023-02-25T08:08:29.689Z,0.9
2023-02-25T08:09:38.805Z,1
2023-02-25T08:10:47.139Z,1
2023-02-25T08:11:55.497Z,1
2023-02-25T08:13:04.055Z,1.2
2023-02-25T08:14:12.397Z,1.2
2023-02-25T08:15:20.725Z,1.2
2023-02-25T08:16:29.277Z,1.3
2023-02-25T08:17:37.629Z,1.3
2023-02-25T08:18:45.978Z,1.3
2023-02-25T08:19:54.536Z,1
2023-02-25T08:21:03.243Z,1
2023-02-25T08:22:11.247Z,1
2023-02-25T08:23:19.794Z,1.1
2023-02-25T08:24:28.149Z,1.1
2023-02-25T08:25:36.499Z,1.1
2023-02-25T08:26:45.054Z,1.2
2023-02-25T08:27:53.396Z,1.2
2023-02-25T08:29:01.788Z,1.2
2023-02-25T08:30:10.305Z,1.1
2023-02-25T08:31:18.789Z,1.1
2023-02-25T08:32:27.091Z,1.1
2023-02-25T08:33:35.540Z,1
2023-02-25T08:34:43.870Z,1
2023-02-25T08:35:52.202Z,1
2023-02-25T08:37:00.783Z,1.3
2023-02-25T08:38:09.116Z,1.3
2023-02-25T08:39:17.453Z,1.3
2023-02-25T08:40:26.098Z,1.3
2023-02-25T08:41:34.360Z,1.3
2023-02-25T08:42:42.713Z,1.3
2023-02-25T08:43:51.269Z,1.3
2023-02-25T08:44:59.639Z,1.3
2023-02-25T08:46:07.971Z,1.3
2023-02-25T08:47:16.517Z,1.6
2023-02-25T08:48:24.866Z,1.6
2023-02-25T08:49:33.209Z,1.6
2023-02-25T08:50:41.778Z,28.5
2023-02-25T08:51:50.118Z,28.5
2023-02-25T08:52:58.497Z,28.5
2023-02-25T08:54:07.025Z,56.799999
2023-02-25T08:55:15.373Z,56.799999
2023-02-25T08:56:23.709Z,56.799999
2023-02-25T08:57:32.262Z,14.7
2023-02-25T08:58:40.625Z,14.7
2023-02-25T08:59:48.980Z,14.7
2023-02-25T09:00:57.568Z,14.8
2023-02-25T09:02:05.829Z,14.8
2023-02-25T09:03:14.184Z,14.8
2023-02-25T09:04:22.939Z,19.6
2023-02-25T09:05:31.088Z,19.6
2023-02-25T09:06:39.423Z,19.6
2023-02-25T09:07:47.983Z,49
2023-02-25T09:08:56.355Z,49
2023-02-25T09:10:04.680Z,49
2023-02-25T09:11:13.236Z,51
2023-02-25T09:12:23.592Z,51
2023-02-25T09:13:29.915Z,51
2023-02-25T09:14:38.482Z,30.9
2023-02-25T09:15:47.438Z,30.9
2023-02-25T09:16:55.920Z,30.9
2023-02-25T09:18:04.555Z,3.5
2023-02-25T09:19:12.915Z,3.5
2023-02-25T09:20:21.720Z,3.5
2023-02-25T09:21:30.690Z,2.2
2023-02-25T09:22:39.025Z,2.2
2023-02-25T09:23:47.386Z,2.2
2023-02-25T09:24:55.956Z,2.4
2023-02-25T09:26:04.263Z,2.4
2023-02-25T09:27:12.596Z,2.4
2023-02-25T09:28:22.901Z,3
2023-02-25T09:29:29.469Z,3
2023-02-25T09:30:37.803Z,3
2023-02-25T09:31:46.512Z,1.8
2023-02-25T09:32:54.855Z,1.8
2023-02-25T09:34:03.039Z,1.8
2023-02-25T09:35:11.589Z,2
2023-02-25T09:36:19.923Z,2
2023-02-25T09:37:28.263Z,2
2023-02-25T09:38:36.834Z,1.2
2023-02-25T09:39:45.168Z,1.2
2023-02-25T09:40:53.517Z,1.2
2023-02-25T09:42:02.036Z,1.2
2023-02-25T09:43:10.377Z,1.2
2023-02-25T09:44:18.747Z,1.2
2023-02-25T09:45:27.254Z,1.9
2023-02-25T09:46:35.590Z,1.9
2023-02-25T09:47:43.954Z,1.9
2023-02-25T09:48:52.484Z,1.3
2023-02-25T09:50:00.810Z,1.3
2023-02-25T09:51:09.147Z,1.3
2023-02-25T09:52:17.687Z,1
2023-02-25T09:53:26.032Z,1
2023-02-25T09:54:34.394Z,1
2023-02-25T09:55:42.915Z,1.6
2023-02-25T09:56:51.279Z,1.6
2023-02-25T09:57:59.658Z,1.6
2023-02-25T09:59:08.204Z,2.3
2023-02-25T10:00:16.535Z,2.3
2023-02-25T10:01:25.202Z,2.3
2023-02-25T10:02:33.904Z,12.8
2023-02-25T10:03:41.769Z,12.8
2023-02-25T10:04:50.100Z,12.8
2023-02-25T10:05:58.647Z,3.6
2023-02-25T10:07:06.986Z,3.6
2023-02-25T10:08:15.336Z,3.6
2023-02-25T10:09:23.898Z,1
2023-02-25T10:10:32.236Z,1
2023-02-25T10:11:40.548Z,1
2023-02-25T10:12:49.120Z,3.4
2023-02-25T10:13:57.450Z,3.4
2023-02-25T10:15:05.758Z,3.4
2023-02-25T10:16:14.304Z,9.2
2023-02-25T10:17:22.636Z,9.2
2023-02-25T10:18:30.969Z,9.2
2023-02-25T10:19:39.508Z,1.7
2023-02-25T10:20:47.935Z,1.7
2023-02-25T10:21:56.292Z,1.7
2023-02-25T10:23:04.855Z,3
2023-02-25T10:24:13.175Z,3
2023-02-25T10:25:21.513Z,3
2023-02-25T10:26:30.102Z,2.4
2023-02-25T10:27:38.416Z,2.4
2023-02-25T10:28:46.795Z,2.4
2023-02-25T10:29:55.294Z,2.7
2023-02-25T10:31:03.728Z,2.7
2023-02-25T10:32:12.284Z,2.7
2023-02-25T10:33:20.646Z,4.1
2023-02-25T10:34:29.005Z,4.1
2023-02-25T10:35:37.333Z,4.1
2023-02-25T10:36:45.872Z,5.7
2023-02-25T10:37:54.248Z,5.7
2023-02-25T10:39:02.565Z,5.7
2023-02-25T10:40:11.256Z,7.5
2023-02-25T10:41:19.448Z,7.5
2023-02-25T10:42:27.790Z,7.5
2023-02-25T10:43:36.363Z,8.6
2023-02-25T10:44:44.745Z,8.6
2023-02-25T10:45:53.136Z,8.6
2023-02-25T10:47:01.583Z,8.7
2023-02-25T10:48:09.892Z,8.7
2023-02-25T10:49:18.238Z,8.7
2023-02-25T10:50:39.148Z,15.8
2023-02-25T10:51:35.107Z,15.8
2023-02-25T10:52:43.426Z,15.8
2023-02-25T10:53:51.941Z,8
2023-02-25T10:55:00.298Z,8
2023-02-25T10:56:08.620Z,8
2023-02-25T10:57:17.186Z,1.7
2023-02-25T10:58:25.505Z,1.7
2023-02-25T10:59:33.841Z,1.7
2023-02-25T11:00:42.396Z,2.6
2023-02-25T11:01:50.732Z,2.6
2023-02-25T11:02:59.052Z,2.6
2023-02-25T11:04:07.578Z,5.2
2023-02-25T11:05:15.913Z,5.2
2023-02-25T11:06:24.308Z,5.2
2023-02-25T11:07:32.795Z,3.2
2023-02-25T11:08:41.128Z,3.2
2023-02-25T11:09:49.462Z,3.2
2023-02-25T11:10:58.033Z,3.1
2023-02-25T11:12:06.332Z,3.1
2023-02-25T11:13:14.668Z,3.1
2023-02-25T11:14:23.215Z,2.7
2023-02-25T11:15:44.008Z,2.7
2023-02-25T11:16:40.011Z,2.7
2023-02-25T11:17:48.446Z,2.4
2023-02-25T11:18:56.766Z,2.4
2023-02-25T11:20:05.105Z,2.4
2023-02-25T11:21:13.689Z,1.9
2023-02-25T11:22:21.974Z,1.9
2023-02-25T11:23:30.296Z,1.9
2023-02-25T11:24:38.836Z,2.3
2023-02-25T11:25:47.185Z,2.3
2023-02-25T11:26:55.498Z,2.3
2023-02-25T11:28:04.036Z,2.6
2023-02-25T11:29:12.382Z,2.6
2023-02-25T11:30:20.729Z,2.6
2023-02-25T11:31:29.760Z,12.3
2023-02-25T11:32:37.641Z,12.3
2023-02-25T11:33:45.912Z,12.3
2023-02-25T11:34:54.444Z,1.6
2023-02-25T11:36:02.783Z,1.6
2023-02-25T11:37:11.112Z,1.6
2023-02-25T11:38:19.664Z,1.9
2023-02-25T11:39:28.020Z,1.9
2023-02-25T11:40:36.370Z,1.9
2023-02-25T11:41:44.894Z,2.3
2023-02-25T11:42:53.222Z,2.3
2023-02-25T11:44:02.560Z,2.3
2023-02-25T11:45:10.109Z,1
2023-02-25T11:46:18.471Z,1
2023-02-25T11:47:26.777Z,1
2023-02-25T11:48:35.354Z,0.9
2023-02-25T11:49:43.657Z,0.9
2023-02-25T11:50:52.045Z,0.9
2023-02-25T11:52:00.577Z,1.2
2023-02-25T11:53:08.929Z,1.2
2023-02-25T11:54:17.263Z,1.2
2023-02-25T11:55:25.814Z,1
2023-02-25T11:56:34.142Z,1
2023-02-25T11:57:42.547Z,1
2023-02-25T11:58:51.096Z,2.2
2023-02-25T11:59:59.426Z,2.2
2023-02-25T12:01:07.766Z,2.2
2023-02-25T12:02:16.296Z,1.1
2023-02-25T12:03:24.640Z,1.1
2023-02-25T12:04:33.017Z,1.1
2023-02-25T12:05:41.608Z,1.2
2023-02-25T12:06:49.868Z,1.2
2023-02-25T12:08:12.226Z,1.2
2023-02-25T12:09:06.754Z,0.8
2023-02-25T12:10:15.102Z,0.8
2023-02-25T12:11:24.340Z,0.8
2023-02-25T12:12:31.968Z,1
2023-02-25T12:13:40.299Z,1
2023-02-25T12:14:48.648Z,1
2023-02-25T12:15:57.227Z,0.8
2023-02-25T12:17:05.531Z,0.8
2023-02-25T12:18:13.862Z,0.8
2023-02-25T12:19:22.396Z,0.7
2023-02-25T12:20:30.768Z,0.7
2023-02-25T12:21:39.075Z,0.7
2023-02-25T12:22:47.623Z,0.8
2023-02-25T12:23:55.969Z,0.8
2023-02-25T12:25:04.289Z,0.8
2023-02-25T12:26:12.811Z,0.7
2023-02-25T12:27:21.150Z,0.7
2023-02-25T12:28:29.480Z,0.7
2023-02-25T12:29:38.021Z,1
2023-02-25T12:30:46.440Z,1
2023-02-25T12:31:54.778Z,1
2023-02-25T12:33:03.253Z,0.9
2023-02-25T12:34:11.573Z,0.9
2023-02-25T12:35:19.921Z,0.9
2023-02-25T12:36:28.486Z,0.9
2023-02-25T12:37:36.796Z,0.9
2023-02-25T12:38:45.149Z,0.9
2023-02-25T12:39:53.678Z,0.9
2023-02-25T12:41:02.021Z,0.9
2023-02-25T12:42:10.397Z,0.9
2023-02-25T12:43:18.922Z,1.1
2023-02-25T12:44:27.274Z,1.1
2023-02-25T12:45:35.684Z,1.1
2023-02-25T12:46:44.151Z,1.5
2023-02-25T12:47:52.509Z,1.5
2023-02-25T12:49:00.824Z,1.5
2023-02-25T12:50:09.388Z,4.3
2023-02-25T12:51:17.730Z,4.3
2023-02-25T12:52:26.105Z,4.3
2023-02-25T12:53:34.623Z,12.3
2023-02-25T12:54:42.945Z,12.3
2023-02-25T12:55:51.288Z,12.3
2023-02-25T12:56:59.825Z,8.8
2023-02-25T12:58:08.157Z,8.8
2023-02-25T12:59:16.503Z,8.8
2023-02-25T13:00:25.057Z,2.7
2023-02-25T13:01:33.487Z,2.7
2023-02-25T13:02:41.717Z,2.7
2023-02-25T13:03:50.381Z,1
2023-02-25T13:04:58.584Z,1
2023-02-25T13:06:06.915Z,1
2023-02-25T13:07:15.471Z,1.3
2023-02-25T13:08:23.813Z,1.3
2023-02-25T13:09:32.117Z,1.3
2023-02-25T13:10:40.671Z,5
2023-02-25T13:12:10.415Z,5
2023-02-25T13:12:57.340Z,5
2023-02-25T13:14:05.903Z,7.2
2023-02-25T13:15:14.249Z,7.2
2023-02-25T13:16:22.592Z,7.2
2023-02-25T13:17:31.104Z,2
2023-02-25T13:18:39.419Z,2
2023-02-25T13:19:47.757Z,2
2023-02-25T13:20:56.326Z,3.2
2023-02-25T13:22:04.639Z,3.2
2023-02-25T13:23:12.943Z,3.2
2023-02-25T13:24:21.513Z,2.9
2023-02-25T13:25:29.820Z,2.9
2023-02-25T13:26:38.154Z,2.9
2023-02-25T13:27:46.691Z,3.8
2023-02-25T13:28:55.016Z,3.8
2023-02-25T13:30:03.356Z,3.8
2023-02-25T13:31:11.900Z,1.5
2023-02-25T13:32:20.360Z,1.5
2023-02-25T13:33:28.579Z,1.5
2023-02-25T13:34:37.103Z,2.6
2023-02-25T13:35:45.437Z,2.6
2023-02-25T13:36:53.771Z,2.6
2023-02-25T13:38:02.308Z,3.8
2023-02-25T13:39:10.630Z,3.8
2023-02-25T13:40:19.018Z,3.8
2023-02-25T13:41:27.533Z,1.9
2023-02-25T13:42:35.863Z,1.9
2023-02-25T13:43:44.195Z,1.9
2023-02-25T13:44:52.724Z,3.7
2023-02-25T13:46:01.177Z,3.7
2023-02-25T13:47:09.471Z,3.7
2023-02-25T13:48:18.022Z,1.2
2023-02-25T13:49:26.341Z,1.2
2023-02-25T13:50:34.684Z,1.2
2023-02-25T13:51:43.218Z,2
2023-02-25T13:52:51.556Z,2
2023-02-25T13:53:59.880Z,2
2023-02-25T13:55:08.433Z,3.1
2023-02-25T13:56:16.791Z,3.1
2023-02-25T13:57:25.098Z,3.1
2023-02-25T13:58:33.652Z,2
2023-02-25T13:59:41.989Z,2
2023-02-25T14:00:50.312Z,2
2023-02-25T14:01:58.860Z,0.9
2023-02-25T14:03:07.188Z,0.9
2023-02-25T14:04:15.524Z,0.9
2023-02-25T14:05:24.174Z,1.5
2023-02-25T14:06:32.396Z,1.5
2023-02-25T14:07:40.729Z,1.5
2023-02-25T14:08:49.263Z,1.2
2023-02-25T14:09:57.592Z,1.2
2023-02-25T14:11:05.929Z,1.2
2023-02-25T14:12:14.500Z,1.3
2023-02-25T14:13:22.794Z,1.3
2023-02-25T14:14:31.119Z,1.3
2023-02-25T14:15:39.701Z,1
2023-02-25T14:16:48.029Z,1
2023-02-25T14:17:56.366Z,1
2023-02-25T14:19:04.896Z,1
2023-02-25T14:20:13.247Z,1
2023-02-25T14:21:21.801Z,1
2023-02-25T14:22:30.144Z,1.2
2023-02-25T14:23:38.497Z,1.2
2023-02-25T14:24:46.826Z,1.2
2023-02-25T14:25:55.367Z,1.1
2023-02-25T14:27:03.684Z,1.1
2023-02-25T14:28:13.439Z,1.1
2023-02-25T14:29:20.615Z,0.8
2023-02-25T14:30:28.984Z,0.8
2023-02-25T15:04:30.411Z,0
2023-02-25T15:05:38.728Z,0
2023-02-25T15:06:47.071Z,0
2023-02-25T15:07:55.604Z,8.1
2023-02-25T15:09:03.930Z,8.1
2023-02-25T15:10:12.612Z,8.1
2023-02-25T15:11:21.193Z,5.3
2023-02-25T15:12:29.507Z,5.3
2023-02-25T15:13:37.849Z,5.3
2023-02-25T15:14:46.445Z,3.3
2023-02-25T15:15:54.769Z,3.3
2023-02-25T15:17:03.096Z,3.3
2023-02-25T15:18:11.650Z,4
2023-02-25T15:19:19.986Z,4
2023-02-25T15:20:28.360Z,4
2023-02-25T15:21:36.887Z,2.2
2023-02-25T15:22:46.080Z,2.2
2023-02-25T15:23:53.552Z,2.2
2023-02-25T15:25:02.091Z,1.5
2023-02-25T15:26:10.447Z,1.5
2023-02-25T15:27:18.778Z,1.5
2023-02-25T15:28:27.328Z,1.1
2023-02-25T15:29:35.666Z,1.1
2023-02-25T15:30:44.028Z,1.1
2023-02-25T15:31:52.704Z,0.7
2023-02-25T15:33:00.886Z,0.7
2023-02-25T15:34:09.230Z,0.7
2023-02-25T15:35:17.756Z,0.6
2023-02-25T15:36:26.127Z,0.6
2023-02-25T15:37:34.426Z,0.6
2023-02-25T15:38:42.988Z,3.2
2023-02-25T15:39:51.318Z,3.2
2023-02-25T15:40:59.665Z,3.2
2023-02-25T15:42:08.199Z,3.5
2023-02-25T15:43:16.522Z,3.5
2023-02-25T15:44:24.863Z,3.5
2023-02-25T15:45:33.402Z,2.9
2023-02-25T15:46:41.852Z,2.9
2023-02-25T15:47:50.093Z,2.9
2023-02-25T15:48:58.644Z,1.6
2023-02-25T15:50:06.970Z,1.6
2023-02-25T15:51:15.323Z,1.6
2023-02-25T15:52:23.890Z,1.2
2023-02-25T15:53:32.187Z,1.2
2023-02-25T15:54:40.514Z,1.2
2023-02-25T15:55:49.056Z,1.3
2023-02-25T15:56:57.419Z,1.3
2023-02-25T15:58:05.787Z,1.3
2023-02-25T15:59:14.303Z,3.9
2023-02-25T16:00:22.681Z,3.9
2023-02-25T16:01:31.079Z,3.9
2023-02-25T16:02:39.555Z,3.3
2023-02-25T16:03:47.891Z,3.3
2023-02-25T16:04:56.274Z,3.3
2023-02-25T16:06:04.840Z,19.700001
2023-02-25T16:07:13.177Z,19.700001
2023-02-25T16:08:21.556Z,19.700001
2023-02-25T16:09:30.108Z,24
2023-02-25T16:10:38.448Z,24
2023-02-25T16:11:46.783Z,24
2023-02-25T16:12:55.331Z,1.4
2023-02-25T16:14:03.648Z,1.4
2023-02-25T16:15:11.978Z,1.4
2023-02-25T16:16:20.594Z,2.4
2023-02-25T16:17:28.874Z,2.4
2023-02-25T16:18:37.195Z,2.4
2023-02-25T16:19:45.751Z,11.8
2023-02-25T16:20:54.095Z,11.8
2023-02-25T16:22:02.453Z,11.8